Time;durP1;ratioP1;P1;durP2;ratioP2;P2;SDS_P1;SDS_P2;PMS_P1;PMS_P2;Temp;Humidity;BMP_temperature;BMP_pressure;BME280_temperature;BME280_humidity;BME280_pressure;Samples;Min_cycle;Max_cycle;Signal;HPM_P1;HPM_P2
2020/12/07 00:01:00;;;;;;;1.27;1.05;;;;;;;2.59;73.08;97655.96;1757794;81;21173;-69
2020/12/07 00:03:28;;;;;;;0.82;0.60;;;;;;;2.55;73.73;97657.54;1757667;81;21174;-70
2020/12/07 00:05:56;;;;;;;1.45;0.78;;;;;;;2.56;73.34;97660.02;1757860;81;21180;-70
2020/12/07 00:08:24;;;;;;;1.12;0.80;;;;;;;2.54;73.64;97654.61;1758349;81;21209;-69
2020/12/07 00:10:52;;;;;;;0.75;0.60;;;;;;;2.58;73.22;97649.64;1758096;81;21174;-69
2020/12/07 00:13:20;;;;;;;1.62;0.47;;;;;;;2.60;73.10;97647.36;1757952;81;21166;-69
2020/12/07 00:15:48;;;;;;;0.57;0.30;;;;;;;2.66;72.86;97649.95;1757986;81;21173;-69
2020/12/07 00:18:16;;;;;;;1.98;0.68;;;;;;;2.62;72.93;97654.93;1759694;81;21675;-70
2020/12/07 00:20:46;;;;;;;1.20;0.72;;;;;;;2.62;72.95;97654.93;1759719;81;21602;-70
2020/12/07 00:23:14;;;;;;;0.72;0.53;;;;;;;2.58;73.21;97651.75;1759278;81;21173;-70
2020/12/07 00:25:41;;;;;;;0.35;0.35;;;;;;;2.58;73.01;97655.59;1758792;81;21205;-70
2020/12/07 00:28:09;;;;;;;0.50;0.30;;;;;;;2.55;73.35;97660.10;1757720;81;21170;-70
2020/12/07 00:30:37;;;;;;;0.70;0.68;;;;;;;2.52;73.22;97664.16;1757859;81;21141;-70
2020/12/07 00:33:05;;;;;;;0.70;0.55;;;;;;;2.52;73.28;97653.45;1757683;81;21133;-70
2020/12/07 00:35:33;;;;;;;0.42;0.40;;;;;;;2.51;73.21;97657.38;1750070;81;22123;-70
2020/12/07 00:38:00;;;;;;;1.72;0.78;;;;;;;2.55;72.99;97657.54;1749078;82;21194;-70
2020/12/07 00:40:28;;;;;;;0.72;0.50;;;;;;;2.59;72.79;97652.58;1748825;81;21165;-70
2020/12/07 00:42:56;;;;;;;1.17;0.70;;;;;;;2.59;72.59;97656.41;1749048;81;21186;-70
2020/12/07 00:45:25;;;;;;;0.53;0.53;;;;;;;2.58;72.85;97650.92;1748950;81;21694;-70
2020/12/07 00:47:53;;;;;;;2.27;1.15;;;;;;;2.61;72.40;97650.72;1749043;82;21254;-71
2020/12/07 00:50:21;;;;;;;0.88;0.75;;;;;;;2.58;72.73;97656.88;1749030;82;21173;-71
2020/12/07 00:52:49;;;;;;;1.27;0.98;;;;;;;2.57;72.82;97656.99;1749026;82;21165;-71
2020/12/07 00:55:17;;;;;;;0.55;0.55;;;;;;;2.54;72.84;97654.15;1748856;82;21245;-71
2020/12/07 00:57:45;;;;;;;1.30;1.10;;;;;;;2.53;72.61;97651.22;1749045;82;21195;-69
2020/12/07 01:00:13;;;;;;;2.65;1.32;;;;;;;2.49;72.96;97650.27;1749277;82;21170;-71
2020/12/07 01:02:44;;;;;;;3.33;1.95;;;;;;;2.41;73.21;97657.17;1749198;81;21107;-70
2020/12/07 01:05:12;;;;;;;2.50;1.10;;;;;;;2.41;73.21;97653.78;1749112;82;21190;-71
2020/12/07 01:07:40;;;;;;;3.45;1.17;;;;;;;2.34;73.48;97650.33;1748918;81;21161;-69
2020/12/07 01:10:08;;;;;;;1.57;1.15;;;;;;;2.34;73.53;97650.33;1748967;82;21602;-70
2020/12/07 01:12:37;;;;;;;0.90;0.70;;;;;;;2.29;73.76;97648.54;1748914;82;21209;-70
2020/12/07 01:15:06;;;;;;;1.55;0.93;;;;;;;2.25;73.80;97639.41;1748990;81;21158;-69
2020/12/07 01:17:34;;;;;;;5.75;1.32;;;;;;;2.19;74.02;97642.34;1748906;82;21165;-69
2020/12/07 01:20:06;;;;;;;1.82;1.00;;;;;;;2.17;73.91;97651.06;1748434;82;21146;-69
2020/12/07 01:22:34;;;;;;;0.85;0.60;;;;;;;2.15;74.01;97652.43;1748765;82;21162;-69
2020/12/07 01:25:05;;;;;;;0.20;0.20;;;;;;;2.11;73.98;97648.42;1749274;82;21209;-71
2020/12/07 01:27:34;;;;;;;0.55;0.55;;;;;;;2.17;73.55;97643.38;1748206;81;21173;-70
2020/12/07 01:30:04;;;;;;;0.37;0.35;;;;;;;2.27;72.68;97633.71;1749003;82;21169;-71
2020/12/07 01:32:32;;;;;;;1.90;0.78;;;;;;;2.37;72.45;97620.65;1748758;81;21206;-69
2020/12/07 01:35:01;;;;;;;0.80;0.68;;;;;;;2.45;72.02;97624.02;1753142;81;21138;-70
2020/12/07 01:37:29;;;;;;;0.37;0.37;;;;;;;2.51;71.78;97621.49;1757736;82;21162;-69
2020/12/07 01:39:57;;;;;;;2.42;0.78;;;;;;;2.56;71.42;97610.48;1757879;82;21226;-68
2020/12/07 01:42:25;;;;;;;0.30;0.30;;;;;;;2.55;71.50;97612.68;1757874;82;21213;-68
2020/12/07 01:44:54;;;;;;;0.55;0.47;;;;;;;2.58;71.34;97616.31;1757903;82;21172;-68
2020/12/07 01:47:28;;;;;;;0.37;0.28;;;;;;;2.61;71.12;97611.80;1758032;82;21138;-68
2020/12/07 01:50:02;;;;;;;0.68;0.57;;;;;;;2.64;71.01;97603.11;1757658;82;21621;-68
2020/12/07 01:52:34;;;;;;;0.95;0.57;;;;;;;2.68;70.86;97598.14;1757886;81;21161;-71
2020/12/07 01:55:04;;;;;;;1.47;0.60;;;;;;;2.70;70.76;97607.81;1758645;81;21217;-68
2020/12/07 01:57:34;;;;;;;0.82;0.57;;;;;;;2.69;70.74;97601.86;1756903;81;21158;-68
2020/12/07 02:00:08;;;;;;;0.65;0.37;;;;;;;2.67;70.85;97600.34;1758077;81;21205;-68
2020/12/07 02:02:37;;;;;;;0.50;0.30;;;;;;;2.66;70.79;97596.95;1756738;81;21618;-68
2020/12/07 02:05:06;;;;;;;0.20;0.20;;;;;;;2.63;70.86;97598.44;1758135;81;21605;-69
2020/12/07 02:07:34;;;;;;;1.17;0.50;;;;;;;2.61;70.86;97589.19;1757892;81;21130;-70
2020/12/07 02:10:02;;;;;;;1.30;0.40;;;;;;;2.60;70.85;97592.70;1757705;81;21146;-70
2020/12/07 02:12:32;;;;;;;0.75;0.72;;;;;;;2.57;70.90;97587.78;1757877;81;21212;-69
2020/12/07 02:15:00;;;;;;;0.60;0.42;;;;;;;2.53;71.15;97592.27;1732208;81;21613;-69
2020/12/07 02:17:28;;;;;;;0.78;0.70;;;;;;;2.52;71.15;97591.93;1757855;81;21618;-72
2020/12/07 02:19:55;;;;;;;1.52;0.47;;;;;;;2.52;71.27;97590.65;1757801;81;21130;-71
2020/12/07 02:22:24;;;;;;;0.20;0.20;;;;;;;2.51;71.20;97582.59;1758004;81;21209;-68
2020/12/07 02:25:12;;;;;;;2.00;0.68;;;;;;;2.51;71.14;97585.16;1754888;81;21154;-68
2020/12/07 02:27:39;;;;;;;0.68;0.60;;;;;;;2.50;71.36;97581.40;1758201;81;21531;-68
2020/12/07 02:30:08;;;;;;;0.68;0.50;;;;;;;2.49;71.34;97577.22;1757836;81;21158;-69
2020/12/07 02:32:36;;;;;;;1.12;0.45;;;;;;;2.49;71.33;97578.02;1757843;81;21700;-70
2020/12/07 02:35:10;;;;;;;0.45;0.40;;;;;;;2.49;71.47;97574.17;1753208;81;21173;-70
2020/12/07 02:37:43;;;;;;;1.42;0.68;;;;;;;2.51;71.35;97572.80;1747902;81;21162;-70
2020/12/07 02:40:11;;;;;;;0.30;0.30;;;;;;;2.51;71.33;97576.64;1749018;82;21578;-69
2020/12/07 02:42:41;;;;;;;1.22;0.75;;;;;;;2.48;71.40;97580.24;1748891;81;21611;-69
2020/12/07 02:45:14;;;;;;;0.30;0.30;;;;;;;2.46;71.51;97576.95;1749160;82;21185;-69
2020/12/07 02:47:45;;;;;;;0.93;0.55;;;;;;;2.46;71.51;97573.09;1748476;81;21118;-70
2020/12/07 02:50:14;;;;;;;2.47;0.75;;;;;;;2.45;71.45;97572.77;1749114;82;21594;-69
2020/12/07 02:52:43;;;;;;;1.27;0.82;;;;;;;2.37;71.78;97573.24;1749166;82;21170;-69
2020/12/07 02:55:12;;;;;;;1.60;0.78;;;;;;;2.37;71.52;97573.24;1749217;82;21197;-72
2020/12/07 02:57:42;;;;;;;1.82;0.98;;;;;;;2.26;71.81;97573.13;1749493;82;21205;-70
2020/12/07 03:00:12;;;;;;;1.50;0.47;;;;;;;2.20;71.77;97579.95;1749404;82;21133;-69
2020/12/07 03:02:42;;;;;;;6.15;1.05;;;;;;;2.12;71.89;97582.19;1748926;82;21170;-69
2020/12/07 03:05:12;;;;;;;0.93;0.80;;;;;;;1.99;72.55;97585.17;1747841;81;21154;-69
2020/12/07 03:07:41;;;;;;;2.50;1.20;;;;;;;1.87;73.40;97584.68;1748939;82;21181;-69
2020/12/07 03:10:09;;;;;;;1.22;0.90;;;;;;;1.75;74.31;97591.41;1748943;82;21658;-70
2020/12/07 03:12:39;;;;;;;2.37;1.22;;;;;;;1.72;73.53;97590.78;1748855;81;21191;-69
2020/12/07 03:15:09;;;;;;;2.02;1.12;;;;;;;1.68;73.48;97576.53;1749022;82;21574;-69
2020/12/07 03:17:38;;;;;;;1.12;0.80;;;;;;;1.59;74.90;97577.13;1748526;82;21149;-71
2020/12/07 03:20:07;;;;;;;1.10;0.82;;;;;;;1.54;75.09;97586.38;1748930;82;21595;-72
2020/12/07 03:22:34;;;;;;;0.75;0.68;;;;;;;1.51;74.65;97579.35;1719577;82;21598;-72
2020/12/07 03:25:03;;;;;;;2.08;1.22;;;;;;;1.50;75.37;97577.70;1749070;82;21237;-73
2020/12/07 03:27:33;;;;;;;0.80;0.80;;;;;;;1.50;75.32;97577.70;1748985;81;21142;-73
2020/12/07 03:30:03;;;;;;;0.50;0.50;;;;;;;1.54;74.96;97588.94;1748911;82;21134;-72
2020/12/07 03:32:31;;;;;;;2.22;0.78;;;;;;;1.56;74.78;97593.48;1748930;82;21206;-74
2020/12/07 03:35:00;;;;;;;0.60;0.60;;;;;;;1.61;74.73;97593.20;1749079;82;21177;-73
2020/12/07 03:37:27;;;;;;;0.50;0.40;;;;;;;1.66;74.29;97591.18;1748995;82;21574;-73
2020/12/07 03:39:58;;;;;;;0.55;0.55;;;;;;;1.70;74.49;97591.34;1748914;82;21217;-72
2020/12/07 03:42:27;;;;;;;1.85;1.05;;;;;;;1.75;74.35;97588.05;1748426;81;21139;-73
2020/12/07 03:44:58;;;;;;;1.87;1.12;;;;;;;1.76;74.35;97584.55;1749152;81;21194;-73
2020/12/07 03:47:26;;;;;;;1.50;1.32;;;;;;;1.75;74.28;97581.16;1748857;82;21558;-73
2020/12/07 03:49:56;;;;;;;1.52;0.88;;;;;;;1.78;74.22;97581.45;1749014;82;21166;-72
2020/12/07 03:52:23;;;;;;;1.45;0.57;;;;;;;1.79;74.42;97590.78;1748864;82;21221;-72
2020/12/07 03:54:53;;;;;;;2.27;0.82;;;;;;;1.78;74.45;97583.55;1749007;82;21194;-73
2020/12/07 03:57:21;;;;;;;1.80;0.82;;;;;;;1.82;74.16;97586.73;1749116;82;21189;-72
2020/12/07 03:59:49;;;;;;;17.77;1.37;;;;;;;1.85;74.01;97591.20;1749031;82;21134;-72
2020/12/07 04:02:17;;;;;;;1.75;1.35;;;;;;;1.86;73.88;97589.46;1748865;82;21201;-73
2020/12/07 04:04:58;;;;;;;0.62;0.50;;;;;;;1.86;73.77;97583.06;1748805;82;21586;-73
2020/12/07 04:07:22;;;;;;;0.65;0.65;;;;;;;1.87;73.74;97590.63;1748190;82;21463;-72
2020/12/07 04:09:51;;;;;;;0.57;0.47;;;;;;;1.87;73.92;97588.52;1748985;81;21189;-72
2020/12/07 04:12:19;;;;;;;1.75;0.85;;;;;;;1.84;74.05;97588.72;1748934;82;21197;-72
2020/12/07 04:14:47;;;;;;;0.78;0.60;;;;;;;1.87;73.77;97588.06;1748879;82;21599;-72
2020/12/07 04:17:15;;;;;;;1.07;0.98;;;;;;;1.86;73.91;97583.89;1748983;82;21587;-73
2020/12/07 04:19:43;;;;;;;0.78;0.70;;;;;;;1.85;73.80;97578.39;1749078;82;21166;-72
2020/12/07 04:22:11;;;;;;;4.53;1.50;;;;;;;1.83;73.67;97567.42;1749127;82;21705;-73
2020/12/07 04:24:39;;;;;;;1.45;0.65;;;;;;;1.83;73.83;97564.03;1726008;83;21114;-74
2020/12/07 04:27:07;;;;;;;1.52;0.88;;;;;;;1.81;74.02;97564.15;1749043;82;21574;-70
2020/12/07 04:29:35;;;;;;;1.17;0.88;;;;;;;1.81;73.97;97564.15;1748864;82;21166;-70
2020/12/07 04:32:03;;;;;;;0.70;0.65;;;;;;;1.80;74.08;97562.95;1748929;82;21189;-71
2020/12/07 04:34:31;;;;;;;0.78;0.72;;;;;;;1.79;73.99;97562.13;1749043;82;21591;-71
2020/12/07 04:36:58;;;;;;;0.72;0.70;;;;;;;1.77;74.08;97553.74;1735714;82;21594;-71
2020/12/07 04:39:26;;;;;;;0.50;0.50;;;;;;;1.78;74.12;97549.45;1705677;83;21582;-71
2020/12/07 04:41:55;;;;;;;2.92;0.90;;;;;;;1.79;73.97;97541.66;1705748;83;21250;-71
2020/12/07 04:44:24;;;;;;;1.57;0.65;;;;;;;1.83;73.83;97540.53;1705511;83;21142;-71
2020/12/07 04:46:52;;;;;;;0.40;0.20;;;;;;;1.85;73.61;97541.27;1680225;84;21177;-72
2020/12/07 04:49:21;;;;;;;3.65;0.50;;;;;;;1.89;73.53;97550.85;1706056;84;21146;-71
2020/12/07 04:51:51;;;;;;;1.35;0.82;;;;;;;1.90;73.43;97553.33;1705066;84;21190;-71
2020/12/07 04:54:22;;;;;;;0.65;0.55;;;;;;;1.91;73.34;97569.03;1705518;84;21146;-72
2020/12/07 04:56:50;;;;;;;1.42;0.78;;;;;;;1.92;73.45;97559.61;1705789;84;21170;-71
2020/12/07 04:59:20;;;;;;;1.57;0.90;;;;;;;1.93;73.31;97559.98;1705808;84;21146;-71
2020/12/07 05:01:48;;;;;;;1.35;1.20;;;;;;;1.87;73.67;97566.76;1706003;83;22045;-71
2020/12/07 05:04:16;;;;;;;2.45;0.93;;;;;;;1.81;73.84;97554.36;1692375;83;21214;-71
2020/12/07 05:06:43;;;;;;;2.22;1.35;;;;;;;1.76;73.69;97556.39;1733690;82;21191;-71
2020/12/07 05:09:11;;;;;;;2.95;1.15;;;;;;;1.73;74.11;97571.50;1699930;83;21127;-71
2020/12/07 05:11:39;;;;;;;0.88;0.68;;;;;;;1.74;74.04;97565.92;1734471;83;21206;-70
2020/12/07 05:14:11;;;;;;;1.25;0.70;;;;;;;1.77;74.03;97567.00;1734690;83;21124;-69
2020/12/07 05:16:37;;;;;;;0.60;0.60;;;;;;;1.79;73.79;97572.86;1734611;83;22290;-70
2020/12/07 05:19:11;;;;;;;0.85;0.40;;;;;;;1.80;73.69;97567.62;1734898;81;21190;-71
2020/12/07 05:21:39;;;;;;;0.98;0.82;;;;;;;1.81;73.30;97569.27;1735281;83;21170;-70
2020/12/07 05:24:07;;;;;;;0.42;0.35;;;;;;;1.84;73.50;97573.36;1735089;82;21214;-70
2020/12/07 05:26:36;;;;;;;0.90;0.90;;;;;;;1.84;73.43;97574.19;1710432;83;21159;-70
2020/12/07 05:29:15;;;;;;;1.70;0.60;;;;;;;1.84;73.49;97572.08;1735365;81;21123;-70
2020/12/07 05:31:50;;;;;;;1.40;1.10;;;;;;;1.87;73.12;97575.72;1753131;81;21183;-70
2020/12/07 05:37:35;;;;;;;1.35;0.90;;;;;;;1.84;73.35;97561.39;1593048;89;21366;-71
2020/12/07 05:40:07;;;;;;;2.52;1.32;;;;;;;1.87;73.18;97562.92;1624667;87;21191;-72
2020/12/07 05:42:35;;;;;;;0.72;0.72;;;;;;;1.88;73.28;97569.23;1614763;88;21212;-71
2020/12/07 05:45:07;;;;;;;0.78;0.78;;;;;;;1.91;73.17;97572.87;1586631;90;21299;-71
2020/12/07 05:47:39;;;;;;;0.80;0.70;;;;;;;1.91;73.12;97573.33;1620002;87;21236;-71
2020/12/07 05:50:10;;;;;;;1.27;0.50;;;;;;;1.90;73.04;97566.12;1639364;87;21610;-71
2020/12/07 05:53:00;;;;;;;1.52;1.17;;;;;;;1.92;72.83;97558.33;1631960;87;21170;-72
2020/12/07 05:55:29;;;;;;;2.62;1.45;;;;;;;1.89;72.85;97570.88;1625039;87;21193;-73
2020/12/07 05:58:11;;;;;;;1.45;1.17;;;;;;;1.90;72.73;97567.86;1628288;87;21163;-72
2020/12/07 06:00:39;;;;;;;1.20;0.95;;;;;;;1.87;73.02;97580.38;1622048;88;21218;-71
2020/12/07 06:03:07;;;;;;;6.50;1.20;;;;;;;1.86;73.07;97572.36;1598782;88;21162;-70
2020/12/07 06:05:37;;;;;;;2.95;1.25;;;;;;;1.86;72.87;97572.82;1622368;88;21187;-70
2020/12/07 06:08:12;;;;;;;1.35;1.00;;;;;;;1.86;72.76;97584.34;1599668;88;21804;-70
2020/12/07 06:11:14;;;;;;;3.67;1.25;;;;;;;1.86;72.77;97580.05;1623822;87;21242;-70
2020/12/07 06:13:42;;;;;;;1.80;1.20;;;;;;;1.88;72.57;97587.61;1620071;86;21632;-70
2020/12/07 06:16:12;;;;;;;0.82;0.68;;;;;;;1.90;72.46;97584.51;1661351;86;21232;-69
2020/12/07 06:18:44;;;;;;;1.02;0.75;;;;;;;1.92;72.22;97590.34;1661682;86;21147;-70
2020/12/07 06:21:20;;;;;;;0.70;0.70;;;;;;;1.95;71.95;97590.59;1662441;86;21757;-70
2020/12/07 06:23:48;;;;;;;1.02;0.72;;;;;;;1.96;71.83;97586.66;1662911;86;21422;-69
2020/12/07 06:26:19;;;;;;;1.00;0.65;;;;;;;1.99;71.87;97590.30;1662766;86;21805;-69
2020/12/07 06:28:49;;;;;;;1.52;0.88;;;;;;;2.02;71.91;97600.83;1661865;86;21611;-73
2020/12/07 06:31:21;;;;;;;3.60;1.45;;;;;;;2.04;71.84;97607.48;1661541;86;21648;-69
2020/12/07 06:33:54;;;;;;;0.85;0.68;;;;;;;2.07;71.78;97596.20;1661833;86;21191;-74
2020/12/07 06:36:32;;;;;;;1.65;0.85;;;;;;;2.07;71.58;97603.44;1662025;86;21742;-70
2020/12/07 06:39:05;;;;;;;1.95;1.15;;;;;;;2.08;71.66;97603.80;1661502;86;21156;-70
2020/12/07 06:41:44;;;;;;;0.70;0.55;;;;;;;2.08;71.62;97589.72;1661486;86;21222;-71
2020/12/07 06:44:40;;;;;;;1.45;1.10;;;;;;;2.10;71.70;97587.06;1661599;86;21163;-72
2020/12/07 06:52:20;;;;;;;1.47;0.65;;;;;;;2.18;70.64;97566.41;1642048;87;21604;-72
2020/12/07 06:55:09;;;;;;;1.70;0.98;;;;;;;2.23;70.61;97573.80;1622059;87;21187;-73
2020/12/07 06:58:08;;;;;;;1.42;0.88;;;;;;;2.28;70.42;97577.72;1641470;86;21139;-73
2020/12/07 07:00:35;;;;;;;1.17;0.65;;;;;;;2.32;70.01;97576.59;1664670;85;21578;-72
2020/12/07 07:03:04;;;;;;;2.02;1.25;;;;;;;2.36;69.85;97575.47;1666639;85;21208;-73
2020/12/07 07:05:32;;;;;;;2.15;1.67;;;;;;;2.41;69.88;97580.75;1666608;85;21193;-72
2020/12/07 07:08:01;;;;;;;1.00;0.90;;;;;;;2.43;69.71;97585.30;1666538;85;21605;-73
2020/12/07 07:10:29;;;;;;;3.08;1.57;;;;;;;2.48;69.53;97589.21;1666484;85;21904;-71
2020/12/07 07:12:57;;;;;;;7.17;0.90;;;;;;;2.54;69.83;97592.64;1666464;85;21188;-70
2020/12/07 07:15:25;;;;;;;1.65;1.10;;;;;;;2.61;69.70;97586.63;1666560;85;21158;-70
2020/12/07 07:17:53;;;;;;;5.87;1.87;;;;;;;2.65;69.46;97592.73;1666977;86;21161;-70
2020/12/07 07:20:20;;;;;;;2.05;1.07;;;;;;;2.73;69.84;97584.06;1666515;85;21620;-70
2020/12/07 07:22:49;;;;;;;2.52;1.67;;;;;;;2.51;68.81;97541.58;1666637;85;21217;-69
2020/12/07 07:28:04;;;;;;;0.68;0.68;;;;;;;2.91;68.69;97576.89;1666279;85;21165;-70
2020/12/07 07:30:26;;;;;;;2.00;0.85;;;;;;;2.95;67.76;97575.75;1665000;85;21191;-69
2020/12/07 07:32:56;;;;;;;0.78;0.78;;;;;;;2.98;67.53;97576.82;1665659;85;21169;-65
2020/12/07 07:35:27;;;;;;;3.02;1.07;;;;;;;3.12;68.49;97577.96;1666245;85;21189;-70
2020/12/07 07:37:56;;;;;;;2.12;0.80;;;;;;;3.17;67.34;97572.06;1666475;86;21594;-71
2020/12/07 07:40:27;;;;;;;1.57;1.42;;;;;;;3.20;66.31;97566.70;1666396;85;21188;-73
2020/12/07 07:43:02;;;;;;;0.82;0.50;;;;;;;3.28;66.49;97578.55;1666363;85;21209;-72
2020/12/07 07:45:37;;;;;;;5.58;2.12;;;;;;;3.31;66.35;97574.94;1666292;84;21194;-66
2020/12/07 08:16:23;;;;;;;1.52;0.82;;;;;;;4.62;62.93;97536.63;1669061;84;21217;-73
2020/12/07 08:18:57;;;;;;;0.80;0.47;;;;;;;4.77;62.49;97543.19;1667386;84;21538;-69
2020/12/07 08:21:33;;;;;;;0.85;0.60;;;;;;;4.93;60.75;97541.08;1675307;84;21941;-66
2020/12/07 08:24:09;;;;;;;1.27;0.75;;;;;;;5.01;59.67;97534.88;1674935;84;21659;-69
2020/12/07 08:26:43;;;;;;;1.60;0.98;;;;;;;4.96;60.27;97538.27;1676577;84;21259;-69
2020/12/07 08:29:34;;;;;;;0.98;0.70;;;;;;;5.28;59.99;97533.19;1676472;84;21155;-68
2020/12/07 08:32:02;;;;;;;1.70;0.90;;;;;;;5.56;58.23;97539.56;1698139;83;21177;-67
2020/12/07 08:34:30;;;;;;;0.93;0.72;;;;;;;5.75;57.48;97532.00;1698305;83;21169;-68
2020/12/07 08:36:58;;;;;;;2.35;1.15;;;;;;;5.92;57.42;97528.08;1698457;83;21157;-68
2020/12/07 08:39:26;;;;;;;2.22;1.30;;;;;;;5.81;56.93;97520.36;1698225;83;21579;-68
2020/12/07 08:41:57;;;;;;;1.35;1.12;;;;;;;6.10;56.40;97518.86;1698540;83;21145;-68
2020/12/07 08:44:25;;;;;;;2.00;0.60;;;;;;;6.10;56.27;97505.51;1705243;83;21169;-68
2020/12/07 08:46:53;;;;;;;0.70;0.70;;;;;;;6.31;55.58;97514.50;1710876;82;21194;-69
2020/12/07 08:49:21;;;;;;;1.27;0.65;;;;;;;6.62;54.88;97512.29;1710952;83;21559;-68
2020/12/07 08:51:49;;;;;;;4.58;1.82;;;;;;;6.39;54.81;97514.69;1701070;82;21185;-67
2020/12/07 08:54:19;;;;;;;1.22;0.70;;;;;;;6.45;55.11;97505.63;1697847;83;21149;-68
2020/12/07 08:56:47;;;;;;;1.52;1.10;;;;;;;6.97;54.26;97515.75;1696669;84;21157;-68
2020/12/07 08:59:15;;;;;;;0.78;0.78;;;;;;;6.94;53.39;97518.60;1696845;84;21550;-68
2020/12/07 09:01:43;;;;;;;2.50;1.17;;;;;;;7.42;53.33;97513.56;1697121;84;21182;-69
2020/12/07 09:04:11;;;;;;;3.70;1.95;;;;;;;7.68;52.26;97505.28;1709153;83;21150;-69
2020/12/07 09:06:40;;;;;;;2.05;0.65;;;;;;;7.33;52.40;97510.48;1710644;84;21201;-70
2020/12/07 09:09:08;;;;;;;3.37;1.17;;;;;;;7.89;51.12;97500.80;1707613;82;21605;-70
2020/12/07 09:11:36;;;;;;;1.77;0.98;;;;;;;8.06;51.07;97503.97;1701091;83;21125;-71
2020/12/07 09:16:43;;;;;;;20.90;10.35;;;;;;;8.98;48.28;97492.83;1819410;78;23013;-66
2020/12/07 09:19:11;;;;;;;4.35;2.25;;;;;;;9.33;50.85;97480.42;1792728;80;21157;-68
2020/12/07 09:21:39;;;;;;;1.40;0.95;;;;;;;8.88;48.66;97491.23;1792781;80;21294;-70
2020/12/07 09:24:07;;;;;;;2.65;1.17;;;;;;;8.85;48.82;97481.16;1791791;80;21317;-70
2020/12/07 09:26:35;;;;;;;3.60;1.42;;;;;;;9.10;48.83;97467.55;1766248;81;21588;-70
2020/12/07 09:29:04;;;;;;;2.27;1.12;;;;;;;8.92;49.07;97466.67;1676617;84;21576;-70
2020/12/07 09:31:31;;;;;;;1.27;0.85;;;;;;;8.95;47.89;97462.02;1745908;82;21562;-70
2020/12/07 09:34:00;;;;;;;1.27;1.05;;;;;;;9.34;48.77;97443.17;1746520;82;21228;-71
2020/12/07 09:36:28;;;;;;;1.00;0.80;;;;;;;8.90;48.82;97445.30;1746424;82;21629;-67
2020/12/07 09:38:56;;;;;;;1.70;1.52;;;;;;;8.86;48.34;97454.32;1746687;82;21342;-67
2020/12/07 09:41:25;;;;;;;3.00;1.60;;;;;;;8.87;49.18;97456.75;1744288;82;21764;-68
2020/12/07 09:43:54;;;;;;;3.65;1.80;;;;;;;8.94;48.30;97454.41;1738474;82;21140;-68
2020/12/07 09:46:22;;;;;;;3.60;2.15;;;;;;;8.96;48.47;97459.77;1735642;82;21566;-68
2020/12/07 09:48:49;;;;;;;2.37;1.55;;;;;;;8.85;49.27;97453.98;1734407;82;21618;-68
2020/12/07 09:51:17;;;;;;;1.50;1.00;;;;;;;8.87;49.07;97451.56;1729303;82;21136;-68
2020/12/07 09:53:45;;;;;;;6.70;1.35;;;;;;;8.76;49.51;97434.94;1735250;82;21139;-67
2020/12/07 09:56:14;;;;;;;3.00;1.32;;;;;;;8.62;50.22;97434.61;1730756;82;21136;-67
2020/12/07 09:58:42;;;;;;;5.58;1.62;;;;;;;8.22;51.59;97440.02;1734878;81;21236;-66
2020/12/07 10:01:10;;;;;;;2.12;1.45;;;;;;;7.90;51.97;97441.66;1740557;82;21161;-67
2020/12/07 10:03:38;;;;;;;3.33;1.15;;;;;;;7.89;52.68;97442.63;1748575;81;21151;-67
2020/12/07 10:06:06;;;;;;;2.95;0.98;;;;;;;7.95;52.02;97444.17;1748311;82;21136;-67
2020/12/07 10:08:34;;;;;;;3.12;0.80;;;;;;;7.80;52.03;97450.73;1747329;82;21209;-67
2020/12/07 10:11:02;;;;;;;3.02;1.12;;;;;;;7.71;52.08;97437.33;1747478;82;21529;-66
2020/12/07 10:13:30;;;;;;;1.17;0.95;;;;;;;7.74;52.32;97444.83;1747292;82;21199;-66
2020/12/07 10:15:58;;;;;;;1.95;0.98;;;;;;;7.49;52.71;97442.31;1744370;82;21640;-66
2020/12/07 10:18:26;;;;;;;3.35;1.87;;;;;;;7.60;52.49;97442.64;1749547;82;21174;-70
2020/12/07 10:20:55;;;;;;;1.85;0.90;;;;;;;7.33;53.67;97439.92;1749653;82;21230;-68
2020/12/07 10:23:23;;;;;;;2.90;1.15;;;;;;;7.22;53.69;97447.33;1750092;82;21170;-68
2020/12/07 10:25:52;;;;;;;2.37;1.25;;;;;;;7.45;53.42;97438.84;1749518;82;21130;-68
2020/12/07 10:28:22;;;;;;;1.85;1.05;;;;;;;7.68;53.27;97429.04;1748844;81;21189;-68
2020/12/07 10:30:50;;;;;;;1.00;0.80;;;;;;;7.77;52.49;97426.93;1750041;82;21585;-68
2020/12/07 10:33:18;;;;;;;3.35;1.00;;;;;;;7.71;52.80;97423.59;1749789;82;21135;-68
2020/12/07 10:35:46;;;;;;;1.80;1.25;;;;;;;7.83;52.72;97415.55;1749987;82;21147;-70
2020/12/07 10:38:14;;;;;;;2.92;1.50;;;;;;;8.35;51.23;97404.35;1749928;81;21153;-68
2020/12/07 10:40:42;;;;;;;3.00;1.47;;;;;;;8.87;50.31;97404.17;1749181;81;22348;-68
2020/12/07 10:43:10;;;;;;;2.98;0.90;;;;;;;9.17;49.27;97401.24;1749898;81;21223;-67
2020/12/07 10:45:38;;;;;;;2.67;1.00;;;;;;;9.47;47.95;97386.61;1750065;82;21157;-68
2020/12/07 10:48:05;;;;;;;2.87;1.30;;;;;;;9.32;48.87;97382.09;1749864;82;21179;-67
2020/12/07 10:50:33;;;;;;;4.17;1.42;;;;;;;9.08;48.17;97381.39;1749745;81;21241;-67
2020/12/07 10:53:01;;;;;;;2.40;1.17;;;;;;;9.76;47.76;97388.13;1749728;81;21246;-67
2020/12/07 10:55:30;;;;;;;2.62;1.67;;;;;;;10.24;46.53;97376.77;1750066;82;21234;-68
2020/12/07 10:57:58;;;;;;;2.42;1.20;;;;;;;11.00;45.20;97377.20;1749999;82;21197;-68
2020/12/07 11:00:26;;;;;;;1.50;0.72;;;;;;;11.27;44.82;97370.42;1749855;82;21234;-67
2020/12/07 11:02:55;;;;;;;3.90;1.02;;;;;;;11.37;44.72;97369.77;1749979;81;21165;-68
2020/12/07 11:05:23;;;;;;;2.08;1.12;;;;;;;11.28;43.17;97371.55;1749874;82;21198;-69
2020/12/07 11:07:53;;;;;;;2.20;1.52;;;;;;;10.87;44.19;97371.98;1749839;82;21559;-68
2020/12/07 11:10:21;;;;;;;1.67;1.00;;;;;;;11.05;43.63;97353.66;1741401;82;21221;-70
2020/12/07 11:12:58;;;;;;;2.95;1.07;;;;;;;11.72;42.41;97354.35;1729668;82;21186;-73
2020/12/07 11:15:19;;;;;;;1.35;0.80;;;;;;;11.47;43.09;97348.83;1700354;83;21110;-69
2020/12/07 11:17:49;;;;;;;1.32;0.72;;;;;;;11.63;42.52;97347.04;1730589;82;21168;-68
2020/12/07 11:20:17;;;;;;;2.35;1.05;;;;;;;11.62;41.78;97343.29;1805438;79;21176;-68
2020/12/07 11:22:45;;;;;;;1.72;0.93;;;;;;;11.89;42.18;97354.18;1729521;83;21198;-69
2020/12/07 11:25:13;;;;;;;3.42;0.90;;;;;;;12.23;41.39;97350.51;1775695;79;21275;-67
2020/12/07 11:27:41;;;;;;;2.80;1.12;;;;;;;12.80;39.94;97341.98;1769345;81;21152;-70
2020/12/07 11:30:09;;;;;;;2.35;1.20;;;;;;;13.09;39.84;97349.92;1791612;79;21148;-73
2020/12/07 11:32:37;;;;;;;2.55;1.30;;;;;;;13.29;38.43;97339.39;1785360;79;21183;-70
2020/12/07 11:35:06;;;;;;;1.00;0.70;;;;;;;13.60;37.45;97351.04;1805747;79;21585;-71
2020/12/07 11:37:35;;;;;;;4.25;1.02;;;;;;;13.25;37.80;97357.67;1806166;79;21152;-73
2020/12/07 11:40:25;;;;;;;3.58;1.17;;;;;;;13.76;37.74;97353.52;1734595;83;21160;-73
2020/12/07 11:45:33;;;;;;;1.27;0.80;;;;;;;12.86;38.43;97355.61;1612654;86;21650;-72
2020/12/07 11:48:01;;;;;;;2.75;1.10;;;;;;;13.23;38.36;97348.38;1657454;86;21639;-73
2020/12/07 11:50:30;;;;;;;3.08;1.42;;;;;;;13.44;37.00;97362.91;1657431;86;21258;-71
2020/12/07 11:52:58;;;;;;;3.40;0.90;;;;;;;13.35;37.31;97361.33;1656920;86;21180;-73
2020/12/07 11:55:26;;;;;;;2.22;1.15;;;;;;;13.03;38.09;97359.75;1656784;86;21220;-72
2020/12/07 11:57:54;;;;;;;2.17;1.45;;;;;;;12.82;38.44;97358.23;1648331;86;21215;-71
2020/12/07 12:00:23;;;;;;;1.65;0.60;;;;;;;12.02;40.20;97354.98;1647149;86;21655;-70
2020/12/07 12:02:51;;;;;;;3.37;1.65;;;;;;;11.90;40.83;97352.39;1647322;86;21179;-70
2020/12/07 12:05:19;;;;;;;2.67;1.75;;;;;;;11.57;41.80;97355.48;1647416;86;21171;-71
2020/12/07 12:07:47;;;;;;;3.58;2.02;;;;;;;11.19;41.99;97369.12;1647305;86;21148;-73
2020/12/07 12:10:16;;;;;;;1.72;0.98;;;;;;;11.16;41.85;97374.64;1647498;86;21596;-73
2020/12/07 12:12:43;;;;;;;8.03;3.65;;;;;;;10.91;42.67;97371.99;1647055;86;21231;-75
2020/12/07 12:15:11;;;;;;;8.98;1.50;;;;;;;11.11;42.07;97372.52;1641216;86;21217;-72
2020/12/07 12:17:39;;;;;;;0.93;0.62;;;;;;;10.93;43.34;97371.84;1631034;88;21180;-69
2020/12/07 12:20:07;;;;;;;5.55;1.40;;;;;;;11.16;41.98;97357.75;1631143;88;21173;-69
2020/12/07 12:22:35;;;;;;;3.30;1.22;;;;;;;11.71;40.98;97369.14;1631206;87;21176;-69
2020/12/07 12:25:05;;;;;;;1.50;0.93;;;;;;;11.58;41.38;97366.22;1647201;85;21188;-70
2020/12/07 12:27:33;;;;;;;7.03;4.10;;;;;;;12.72;39.46;97357.13;1673516;85;21167;-70
2020/12/07 12:30:01;;;;;;;2.25;1.32;;;;;;;12.91;39.06;97358.52;1675835;84;21116;-70
2020/12/07 12:32:31;;;;;;;2.12;1.05;;;;;;;13.31;38.23;97346.53;1673455;85;21175;-70
2020/12/07 12:34:59;;;;;;;5.03;1.02;;;;;;;12.78;37.96;97354.34;1669206;85;21216;-70
2020/12/07 12:37:27;;;;;;;2.17;1.10;;;;;;;13.25;37.28;97345.12;1666783;85;21239;-69